createdAt,value
2022-12-13T00:02:04.223Z,99.58
2022-12-13T00:04:33.583Z,111.90
2022-12-13T00:07:03.149Z,102.87
2022-12-13T00:09:32.912Z,102.02
2022-12-13T00:12:02.366Z,101.45
2022-12-13T00:14:32.798Z,120.57
2022-12-13T00:17:02.869Z,105.47
2022-12-13T00:19:32.756Z,111.80
2022-12-13T00:22:02.460Z,103.50
2022-12-13T00:24:32.344Z,110.57
2022-12-13T00:27:01.959Z,104.05
2022-12-13T00:29:31.763Z,109.07
2022-12-13T00:32:01.719Z,102.60
2022-12-13T00:34:31.708Z,102.02
2022-12-13T00:37:01.262Z,106.07
2022-12-13T00:39:31.042Z,108.95
2022-12-13T00:42:00.427Z,104.55
2022-12-13T00:44:31.281Z,105.50
2022-12-13T00:47:00.476Z,97.30
2022-12-13T00:49:30.348Z,100.78
2022-12-13T00:52:00.196Z,108.12
2022-12-13T00:54:30.451Z,110.12
2022-12-13T00:56:59.687Z,100.42
2022-12-13T00:59:29.384Z,101.27
2022-12-13T01:01:58.589Z,106.07
2022-12-13T01:04:28.126Z,100.40
2022-12-13T01:06:57.338Z,108.22
2022-12-13T01:09:29.804Z,102.87
2022-12-13T01:12:04.293Z,107.83
2022-12-13T01:14:35.797Z,103.62
2022-12-13T01:17:05.253Z,104.63
2022-12-13T01:19:34.794Z,104.23
2022-12-13T01:22:07.174Z,108.25
2022-12-13T01:24:36.883Z,108.87
2022-12-13T01:27:06.464Z,110.05
2022-12-13T01:29:37.404Z,112.52
2022-12-13T01:32:07.112Z,113.20
2022-12-13T01:34:36.587Z,111.08
2022-12-13T01:37:05.811Z,90.67
2022-12-13T01:39:38.018Z,101.92
2022-12-13T01:42:06.657Z,115.90
2022-12-13T01:44:58.887Z,105.10
2022-12-13T01:47:34.355Z,109.78
2022-12-13T01:50:06.781Z,108.65
2022-12-13T01:52:36.340Z,102.58
2022-12-13T01:55:07.786Z,113.95
2022-12-13T01:57:43.766Z,100.67
2022-12-13T02:00:13.319Z,110.28
2022-12-13T02:02:42.751Z,106.58
2022-12-13T02:05:20.497Z,127.90
2022-12-13T02:07:50.240Z,116.08
2022-12-13T02:10:19.596Z,115.03
2022-12-13T02:12:49.005Z,122.07
2022-12-13T02:15:19.986Z,124.25
2022-12-13T02:17:55.652Z,123.00
2022-12-13T02:20:40.221Z,113.57
2022-12-13T02:23:22.461Z,113.80
2022-12-13T02:26:28.423Z,122.67
2022-12-13T02:29:10.278Z,114.95
2022-12-13T02:31:45.257Z,114.32
2022-12-13T02:34:30.274Z,113.35
2022-12-13T02:37:19.446Z,113.12
2022-12-13T02:40:00.712Z,119.85
2022-12-13T02:42:45.088Z,114.95
2022-12-13T02:45:21.539Z,108.63
2022-12-13T02:47:53.498Z,114.08
2022-12-13T02:50:23.413Z,122.07
2022-12-13T02:52:53.808Z,118.87
2022-12-13T02:55:27.944Z,121.85
2022-12-13T02:57:55.337Z,128.12
2022-12-13T03:00:33.838Z,129.50
2022-12-13T03:03:17.488Z,136.03
2022-12-13T03:06:26.332Z,136.35
2022-12-13T03:09:04.721Z,122.85
2022-12-13T03:12:10.173Z,129.45
2022-12-13T03:14:42.827Z,121.82
2022-12-13T03:17:13.870Z,125.33
2022-12-13T03:19:43.306Z,131.55
2022-12-13T03:22:12.558Z,135.70
2022-12-13T03:24:41.830Z,137.12
2022-12-13T03:27:11.093Z,135.55
2022-12-13T03:29:41.867Z,133.03
2022-12-13T03:32:11.100Z,129.45
2022-12-13T03:34:44.910Z,133.00
2022-12-13T03:37:11.734Z,110.13
2022-12-13T03:39:41.114Z,132.93
2022-12-13T03:42:10.353Z,135.68
2022-12-13T03:44:40.025Z,139.45
2022-12-13T03:47:09.241Z,137.25
2022-12-13T03:49:39.081Z,129.07
2022-12-13T03:52:08.493Z,133.20
2022-12-13T03:54:37.724Z,130.40
2022-12-13T03:57:07.012Z,128.85
2022-12-13T03:59:36.268Z,127.65
2022-12-13T04:02:06.123Z,120.67
2022-12-13T04:04:35.609Z,127.53
2022-12-13T04:07:04.844Z,121.72
2022-12-13T04:09:35.775Z,115.72
2022-12-13T04:12:23.198Z,116.85
2022-12-13T04:14:52.446Z,118.00
2022-12-13T04:17:21.684Z,122.00
2022-12-13T04:19:50.897Z,119.72
2022-12-13T04:22:24.794Z,121.85
2022-12-13T04:24:51.282Z,116.40
2022-12-13T04:27:20.584Z,114.42
2022-12-13T04:29:49.848Z,113.00
2022-12-13T04:32:26.892Z,118.85
2022-12-13T04:34:50.183Z,125.33
2022-12-13T04:37:19.806Z,124.20
2022-12-13T04:39:49.175Z,128.75
2022-12-13T04:42:18.470Z,136.97
2022-12-13T04:44:49.893Z,119.67
2022-12-13T04:47:19.329Z,130.32
2022-12-13T04:49:48.579Z,136.62
2022-12-13T04:52:22.640Z,147.72
2022-12-13T04:54:48.791Z,132.70
2022-12-13T04:57:19.844Z,134.40
2022-12-13T04:59:49.075Z,131.63
2022-12-13T05:02:23.651Z,140.50
2022-12-13T05:04:54.303Z,132.45
2022-12-13T05:07:20.530Z,143.55
2022-12-13T05:09:49.771Z,128.55
2022-12-13T05:12:21.944Z,132.12
2022-12-13T05:14:50.272Z,137.47
2022-12-13T05:17:20.291Z,148.90
2022-12-13T05:19:49.701Z,143.52
2022-12-13T05:22:21.072Z,127.87
2022-12-13T05:24:50.620Z,139.43
2022-12-13T05:27:25.356Z,130.85
2022-12-13T05:29:56.168Z,130.03
2022-12-13T05:32:22.613Z,133.95
2022-12-13T05:34:51.854Z,134.32
2022-12-13T05:37:21.799Z,136.12
2022-12-13T05:39:51.026Z,127.27
2022-12-13T05:42:20.584Z,126.05
2022-12-13T05:44:52.267Z,124.87
2022-12-13T05:47:21.649Z,122.22
2022-12-13T05:49:51.957Z,130.70
2022-12-13T05:52:30.625Z,133.93
2022-12-13T05:55:00.996Z,124.80
2022-12-13T05:57:30.301Z,132.45
2022-12-13T05:59:59.528Z,138.65
2022-12-13T06:02:29.666Z,132.75
2022-12-13T06:04:59.059Z,134.20
2022-12-13T06:07:28.837Z,132.70
2022-12-13T06:10:09.767Z,140.45
2022-12-13T06:12:32.355Z,129.95
2022-12-13T06:15:00.992Z,134.00
2022-12-13T06:17:35.479Z,129.47
2022-12-13T06:20:23.333Z,136.62
2022-12-13T06:22:37.652Z,137.05
2022-12-13T06:25:07.246Z,138.55
2022-12-13T06:27:38.337Z,127.90
2022-12-13T06:30:08.206Z,127.42
2022-12-13T06:32:43.775Z,147.25
2022-12-13T06:35:28.008Z,129.68
2022-12-13T06:37:41.078Z,135.95
2022-12-13T06:40:11.236Z,138.12
2022-12-13T06:42:40.803Z,133.65
2022-12-13T06:45:10.565Z,132.22
2022-12-13T06:47:39.800Z,138.32
2022-12-13T06:50:09.939Z,130.07
2022-12-13T06:52:39.239Z,133.30
2022-12-13T06:55:09.327Z,135.45
2022-12-13T06:57:40.753Z,128.85
2022-12-13T07:00:11.088Z,144.40
2022-12-13T07:02:40.642Z,139.77
2022-12-13T07:05:11.406Z,134.05
2022-12-13T07:07:40.987Z,146.47
2022-12-13T07:10:12.708Z,141.37
2022-12-13T07:12:41.930Z,110.97
2022-12-13T07:15:11.852Z,142.57
2022-12-13T07:17:42.911Z,127.55
2022-12-13T07:20:14.708Z,135.82
2022-12-13T07:22:48.471Z,149.60
2022-12-13T07:25:27.986Z,149.77
2022-12-13T07:27:46.895Z,150.90
2022-12-13T07:30:16.358Z,147.22
2022-12-13T07:32:45.770Z,139.07
2022-12-13T07:35:15.150Z,135.30
2022-12-13T07:37:44.656Z,140.65
2022-12-13T07:40:14.133Z,147.80
2022-12-13T07:42:43.371Z,153.47
2022-12-13T07:45:12.805Z,146.65
2022-12-13T07:47:42.490Z,152.53
2022-12-13T07:50:24.175Z,150.00
2022-12-13T07:52:43.249Z,157.03
2022-12-13T07:55:13.571Z,151.85
2022-12-13T07:57:42.821Z,152.57
2022-12-13T08:00:13.178Z,153.40
2022-12-13T08:02:42.524Z,150.18
2022-12-13T08:05:26.051Z,156.82
2022-12-13T08:07:43.295Z,163.62
2022-12-13T08:10:12.600Z,149.57
2022-12-13T08:12:41.978Z,161.35
2022-12-13T08:15:14.311Z,160.63
2022-12-13T08:17:44.095Z,160.82
2022-12-13T08:20:13.333Z,147.93
2022-12-13T08:22:44.717Z,156.28
2022-12-13T08:25:15.951Z,156.40
2022-12-13T08:27:45.447Z,152.53
2022-12-13T08:30:20.492Z,141.10
2022-12-13T08:32:46.163Z,148.70
2022-12-13T08:35:15.928Z,149.60
2022-12-13T08:37:45.536Z,142.85
2022-12-13T08:40:14.757Z,147.68
2022-12-13T08:42:44.214Z,139.07
2022-12-13T08:45:13.712Z,139.10
2022-12-13T08:47:43.260Z,140.73
2022-12-13T08:50:13.220Z,142.05
2022-12-13T08:52:44.428Z,136.32
2022-12-13T08:55:15.435Z,152.62
2022-12-13T08:57:45.395Z,139.68
2022-12-13T09:00:17.237Z,141.20
2022-12-13T09:02:46.812Z,141.10
2022-12-13T09:05:34.167Z,133.35
2022-12-13T09:07:47.663Z,130.45
2022-12-13T09:10:27.098Z,138.00
2022-12-13T09:12:47.982Z,135.48
2022-12-13T09:15:22.249Z,135.75
2022-12-13T09:17:52.631Z,126.80
2022-12-13T09:20:28.694Z,129.85
2022-12-13T09:22:51.373Z,122.50
2022-12-13T09:25:24.385Z,121.77
2022-12-13T09:27:52.252Z,115.00
2022-12-13T09:30:21.509Z,109.55
2022-12-13T09:32:51.109Z,106.90
2022-12-13T09:35:20.347Z,98.67
2022-12-13T09:37:49.599Z,95.55
2022-12-13T09:40:27.010Z,93.97
2022-12-13T09:43:12.453Z,91.72
2022-12-13T09:45:32.002Z,91.37
2022-12-13T09:48:04.747Z,84.15
2022-12-13T09:53:12.208Z,89.37
2022-12-13T09:55:47.055Z,73.02
2022-12-13T09:58:32.090Z,69.12
2022-12-13T10:01:01.443Z,63.38
2022-12-13T10:03:30.797Z,59.18
2022-12-13T10:06:01.888Z,60.20
2022-12-13T10:08:37.058Z,59.38
2022-12-13T10:11:06.405Z,60.85
2022-12-13T10:13:51.415Z,51.88
2022-12-13T10:16:35.863Z,51.63
2022-12-13T10:19:02.217Z,55.23
2022-12-13T10:21:43.771Z,55.50
2022-12-13T10:24:28.954Z,54.53
2022-12-13T10:26:53.524Z,54.93
2022-12-13T10:29:23.123Z,53.87
2022-12-13T10:31:53.659Z,52.33
2022-12-13T10:34:30.488Z,51.63
2022-12-13T10:37:00.120Z,54.25
2022-12-13T10:39:43.798Z,49.98
2022-12-13T10:42:22.486Z,53.28
2022-12-13T10:44:54.395Z,56.02
2022-12-13T10:47:25.683Z,51.90
2022-12-13T10:49:59.807Z,49.23
2022-12-13T10:52:43.935Z,52.75
2022-12-13T10:55:28.833Z,46.15
2022-12-13T10:58:01.336Z,51.77
2022-12-13T11:05:46.470Z,52.67
2022-12-13T11:08:26.078Z,55.35
2022-12-13T11:10:58.145Z,50.08
2022-12-13T11:13:31.494Z,54.98
2022-12-13T11:16:01.721Z,51.98
2022-12-13T11:18:37.225Z,54.83
2022-12-13T11:21:07.966Z,54.90
2022-12-13T11:23:39.274Z,51.10
2022-12-13T11:26:14.534Z,53.60
2022-12-13T11:29:03.607Z,52.20
2022-12-13T11:31:52.723Z,50.28
2022-12-13T11:34:40.021Z,49.53
2022-12-13T11:37:29.538Z,52.83
2022-12-13T11:40:20.486Z,52.60
2022-12-13T11:43:05.350Z,54.83
2022-12-13T11:45:46.780Z,57.53
2022-12-13T11:48:21.633Z,56.20
2022-12-13T11:50:53.482Z,54.42
2022-12-13T11:53:54.748Z,53.20
2022-12-13T11:56:29.422Z,53.60
2022-12-13T11:59:27.464Z,54.20
2022-12-13T12:02:04.947Z,55.80
2022-12-13T12:05:00.022Z,54.00
2022-12-13T12:07:58.522Z,54.03
2022-12-13T12:10:29.865Z,52.75
2022-12-13T12:13:17.334Z,53.78
2022-12-13T12:15:58.704Z,63.75
2022-12-13T12:18:28.844Z,58.75
2022-12-13T12:21:07.489Z,56.28
2022-12-13T12:23:52.650Z,55.70
2022-12-13T12:29:12.391Z,57.58
2022-12-13T12:31:51.385Z,57.13
2022-12-13T12:34:40.685Z,55.33
2022-12-13T12:37:28.717Z,55.98
2022-12-13T12:40:35.714Z,58.52
2022-12-13T12:43:18.083Z,59.53
2022-12-13T12:45:57.754Z,60.70
2022-12-13T12:49:01.906Z,57.00
2022-12-13T12:51:28.935Z,60.88
2022-12-13T12:54:04.458Z,57.85
2022-12-13T12:56:43.349Z,60.90
2022-12-13T12:59:24.911Z,62.60
2022-12-13T13:02:03.515Z,59.25
2022-12-13T13:04:45.509Z,59.18
2022-12-13T13:07:23.341Z,60.98
2022-12-13T13:09:54.969Z,58.48
2022-12-13T13:14:55.300Z,56.77
2022-12-13T13:17:30.530Z,64.80
2022-12-13T13:20:23.146Z,60.15
2022-12-13T13:23:17.478Z,64.25
2022-12-13T13:25:35.215Z,65.35
2022-12-13T13:28:13.960Z,60.28
2022-12-13T13:31:09.295Z,59.77
2022-12-13T13:33:49.958Z,59.55
2022-12-13T13:36:46.018Z,59.10
2022-12-13T13:39:19.120Z,63.73
2022-12-13T13:41:51.647Z,72.53
2022-12-13T13:44:33.303Z,114.85
2022-12-13T13:47:24.309Z,70.67
2022-12-13T13:50:11.482Z,74.17
2022-12-13T13:53:00.893Z,66.65
2022-12-13T13:55:39.117Z,88.72
2022-12-13T13:58:43.907Z,78.78
2022-12-13T14:01:24.962Z,63.33
2022-12-13T14:04:24.337Z,66.83
2022-12-13T14:07:09.543Z,66.12
2022-12-13T14:10:01.050Z,73.25
2022-12-13T14:12:35.977Z,65.65
2022-12-13T14:15:26.350Z,69.70
2022-12-13T14:18:21.322Z,67.03
2022-12-13T14:21:05.128Z,62.03
2022-12-13T14:23:58.697Z,69.92
2022-12-13T14:26:51.607Z,63.60
2022-12-13T14:29:27.202Z,62.55
2022-12-13T14:31:57.014Z,67.40
2022-12-13T14:34:31.095Z,64.70
2022-12-13T14:37:05.975Z,64.67
2022-12-13T14:39:35.388Z,65.37
2022-12-13T14:42:08.885Z,67.50
2022-12-13T14:44:38.193Z,60.28
2022-12-13T14:47:09.009Z,67.72
2022-12-13T14:49:40.365Z,63.58
2022-12-13T14:52:30.662Z,63.23
2022-12-13T14:55:04.241Z,64.32
2022-12-13T14:57:35.508Z,64.25
2022-12-13T15:00:32.687Z,62.93
2022-12-13T15:03:04.121Z,60.67
2022-12-13T15:05:47.163Z,62.63
2022-12-13T15:08:16.633Z,68.45
2022-12-13T15:13:25.965Z,65.08
2022-12-13T15:16:10.722Z,70.08
2022-12-13T15:18:36.085Z,88.20
2022-12-13T15:21:16.069Z,90.28
2022-12-13T15:23:48.781Z,78.83
2022-12-13T15:26:29.047Z,69.00
2022-12-13T15:28:57.689Z,70.42
2022-12-13T15:31:34.999Z,72.70
2022-12-13T15:34:31.202Z,67.25
2022-12-13T15:37:28.342Z,73.85
2022-12-13T15:39:48.220Z,70.78
2022-12-13T15:42:23.907Z,75.12
2022-12-13T15:44:55.446Z,73.92
2022-12-13T15:47:28.172Z,76.62
2022-12-13T15:50:05.948Z,69.97
2022-12-13T15:52:38.133Z,77.32
2022-12-13T16:00:34.475Z,68.12
2022-12-13T16:03:15.282Z,70.83
2022-12-13T16:05:59.254Z,73.67
2022-12-13T16:08:33.706Z,68.78
2022-12-13T16:11:03.624Z,75.60
2022-12-13T16:13:37.342Z,75.67
2022-12-13T16:16:28.485Z,77.42
2022-12-13T16:18:59.599Z,78.95
2022-12-13T16:21:30.281Z,76.70
2022-12-13T16:23:59.819Z,80.25
2022-12-13T16:26:30.070Z,86.30
2022-12-13T16:29:00.063Z,81.97
2022-12-13T16:31:32.826Z,82.62
2022-12-13T16:34:03.046Z,88.05
2022-12-13T16:36:32.651Z,76.33
2022-12-13T16:39:03.079Z,84.40
2022-12-13T16:41:34.379Z,87.85
2022-12-13T16:44:04.945Z,80.30
2022-12-13T16:47:15.259Z,79.92
2022-12-13T16:49:08.515Z,83.70
2022-12-13T16:54:06.677Z,81.02
2022-12-13T16:56:35.910Z,82.25
2022-12-13T16:59:05.134Z,80.90
2022-12-13T17:01:34.438Z,79.45
2022-12-13T17:04:10.946Z,74.05
2022-12-13T17:06:34.638Z,76.25
2022-12-13T17:09:03.875Z,93.70
2022-12-13T17:11:35.097Z,88.97
2022-12-13T17:14:05.990Z,78.00
2022-12-13T17:16:35.552Z,75.83
2022-12-13T17:19:05.437Z,74.62
2022-12-13T17:21:35.418Z,71.17
2022-12-13T17:24:05.275Z,72.05
2022-12-13T17:26:35.121Z,67.62
2022-12-13T17:29:05.048Z,65.85
2022-12-13T17:31:36.161Z,68.85
2022-12-13T17:34:05.990Z,66.00
2022-12-13T17:36:35.229Z,71.12
2022-12-13T17:39:04.850Z,68.40
2022-12-13T17:41:34.218Z,67.97
2022-12-13T17:44:03.482Z,63.55
2022-12-13T17:46:34.532Z,62.53
2022-12-13T17:49:04.626Z,63.00
2022-12-13T17:51:34.076Z,64.47
2022-12-13T17:54:03.768Z,62.65
2022-12-13T17:56:33.090Z,60.48
2022-12-13T17:59:03.384Z,61.40
2022-12-13T18:01:32.698Z,61.92
2022-12-13T18:04:02.027Z,61.08
2022-12-13T18:06:32.031Z,59.73
2022-12-13T18:09:02.007Z,59.90
2022-12-13T18:11:33.635Z,60.15
2022-12-13T18:14:04.821Z,59.88
2022-12-13T18:16:38.022Z,57.48
2022-12-13T18:19:07.947Z,61.45
2022-12-13T18:21:38.106Z,56.65
2022-12-13T18:24:07.991Z,62.73
2022-12-13T18:26:37.543Z,61.02
2022-12-13T18:29:06.874Z,57.93
2022-12-13T18:31:36.266Z,64.58
2022-12-13T18:34:05.905Z,60.28
2022-12-13T18:36:35.467Z,61.90
2022-12-13T18:39:05.474Z,63.15
2022-12-13T18:41:34.686Z,63.50
2022-12-13T18:44:06.751Z,63.42
2022-12-13T18:46:38.389Z,67.95
2022-12-13T18:49:07.678Z,66.95
2022-12-13T18:51:37.997Z,70.12
2022-12-13T18:54:07.823Z,67.15
2022-12-13T18:56:37.707Z,63.83
2022-12-13T18:59:07.018Z,70.05
2022-12-13T19:01:36.462Z,62.65
2022-12-13T19:04:06.566Z,68.92
2022-12-13T19:06:35.924Z,64.10
2022-12-13T19:09:05.252Z,64.00
2022-12-13T19:11:34.825Z,62.20
2022-12-13T19:14:04.443Z,69.50
2022-12-13T19:16:34.398Z,63.83
2022-12-13T19:19:03.830Z,63.13
2022-12-13T19:21:33.237Z,68.65
2022-12-13T19:24:02.560Z,59.85
2022-12-13T19:26:31.866Z,58.00
2022-12-13T19:29:02.200Z,67.08
2022-12-13T19:31:32.783Z,63.00
2022-12-13T19:34:03.667Z,66.95
2022-12-13T19:36:33.956Z,72.17
2022-12-13T19:39:03.259Z,64.95
2022-12-13T19:41:33.632Z,78.12
2022-12-13T19:44:04.663Z,82.45
2022-12-13T19:46:34.830Z,68.33
2022-12-13T19:49:04.516Z,63.28
2022-12-13T19:51:39.242Z,57.70
2022-12-13T19:54:05.045Z,57.30
2022-12-13T19:56:34.742Z,61.35
2022-12-13T19:59:04.081Z,61.23
2022-12-13T20:01:33.655Z,60.92
2022-12-13T20:04:03.031Z,60.35
2022-12-13T20:06:32.466Z,57.45
2022-12-13T20:09:02.393Z,61.58
2022-12-13T20:11:32.149Z,56.98
2022-12-13T20:14:01.767Z,58.65
2022-12-13T20:16:31.394Z,62.85
2022-12-13T20:19:03.015Z,62.67
2022-12-13T20:21:32.457Z,61.73
2022-12-13T20:24:03.819Z,62.80
2022-12-13T20:26:33.903Z,69.07
2022-12-13T20:29:03.788Z,63.20
2022-12-13T20:31:34.508Z,66.25
2022-12-13T20:34:07.756Z,67.47
2022-12-13T20:36:37.719Z,66.55
2022-12-13T20:39:08.116Z,67.75
2022-12-13T20:41:38.020Z,60.33
2022-12-13T20:44:09.076Z,64.67
2022-12-13T20:46:38.764Z,62.85
2022-12-13T20:49:09.951Z,63.25
2022-12-13T20:51:41.693Z,58.75
2022-12-13T20:54:10.941Z,61.13
2022-12-13T20:56:40.962Z,64.20
2022-12-13T20:59:12.945Z,57.48
2022-12-13T21:01:42.942Z,63.95
2022-12-13T21:04:12.642Z,59.18
2022-12-13T21:06:43.245Z,64.32
2022-12-13T21:09:13.267Z,68.22
2022-12-13T21:11:47.297Z,59.45
2022-12-13T21:14:23.279Z,61.48
2022-12-13T21:17:00.512Z,60.28
2022-12-13T21:19:39.114Z,61.80
2022-12-13T21:22:04.241Z,53.73
2022-12-13T21:24:33.536Z,57.93
2022-12-13T21:27:03.001Z,59.53
2022-12-13T21:29:32.273Z,54.33
2022-12-13T21:32:01.950Z,56.10
2022-12-13T21:34:31.234Z,56.73
2022-12-13T21:37:00.693Z,59.63
2022-12-13T21:39:30.958Z,48.73
2022-12-13T21:42:00.748Z,54.75
2022-12-13T21:44:29.978Z,50.80
2022-12-13T21:47:14.831Z,49.85
2022-12-13T21:49:30.745Z,53.50
2022-12-13T21:52:00.301Z,52.33
2022-12-13T21:54:29.523Z,50.38
2022-12-13T21:57:16.923Z,48.87
2022-12-13T21:59:46.261Z,49.75
2022-12-13T22:02:19.002Z,51.83
2022-12-13T22:04:56.921Z,47.10
2022-12-13T22:07:28.766Z,48.00
2022-12-13T22:09:59.332Z,49.95
2022-12-13T22:12:41.478Z,46.37
2022-12-13T22:15:12.968Z,47.95
2022-12-13T22:17:43.351Z,46.10
2022-12-13T22:20:15.360Z,47.95
2022-12-13T22:25:13.743Z,48.73
2022-12-13T22:27:43.174Z,51.28
2022-12-13T22:30:14.925Z,51.05
2022-12-13T22:32:44.329Z,51.75
2022-12-13T22:35:14.642Z,44.40
2022-12-13T22:37:44.255Z,49.40
2022-12-13T22:40:15.215Z,54.38
2022-12-13T22:42:48.337Z,51.45
2022-12-13T22:45:15.858Z,47.15
2022-12-13T22:47:45.112Z,52.73
2022-12-13T22:50:14.669Z,55.30
2022-12-13T22:52:44.255Z,48.30
2022-12-13T22:55:13.521Z,47.35
2022-12-13T22:57:43.438Z,46.28
2022-12-13T23:00:15.061Z,42.90
2022-12-13T23:02:44.326Z,42.00
2022-12-13T23:05:13.817Z,40.88
2022-12-13T23:07:43.346Z,42.08
2022-12-13T23:10:15.937Z,40.60
2022-12-13T23:13:03.899Z,46.37
2022-12-13T23:15:36.307Z,40.73
2022-12-13T23:18:06.494Z,43.92
2022-12-13T23:20:35.904Z,44.38
2022-12-13T23:23:06.943Z,41.18
2022-12-13T23:25:36.177Z,42.80
2022-12-13T23:28:06.051Z,38.90
2022-12-13T23:30:37.036Z,39.58
2022-12-13T23:33:07.338Z,48.45
2022-12-13T23:35:36.566Z,51.53
2022-12-13T23:38:05.786Z,47.08
2022-12-13T23:40:35.043Z,40.23
2022-12-13T23:43:04.418Z,40.48
2022-12-13T23:45:33.652Z,44.27
2022-12-13T23:48:03.212Z,37.17
2022-12-13T23:50:32.462Z,42.43
2022-12-13T23:53:01.999Z,37.50
2022-12-13T23:55:31.262Z,39.65
2022-12-13T23:58:00.730Z,38.00
